Orbital elements of FENGYUN 1C DEB
| Launched | 9 May 1999 |
| Flight ended | – |
| Launch site | Taiyuan Space Center, PRC |
| Owner | People's Republic of China |
| NORAD ID | 31721 |
| Date fetched |
Epoch osculation |
Inc. [°] |
Ecc. | RA asc node [hr] |
Arg Peri. [°] |
Mean anom [°] |
Mean motion [rev/day] |
Abs. mag |
| Date fetched |
Epoch osculation |
Inc. [°] |
Ecc. | RA asc node [hr] |
Arg Peri. [°] |
Mean anom [°] |
Mean motion [rev/day] |
Abs. mag |
| 2026 May 07 17:58 | 2026 May 03 11:11:19 | 99.7969 | 0.03171 | 7.4463 | 177.3397 | 336.1967 | 13.73998 | – |
| 2026 May 06 17:57 | 2026 May 03 11:11:19 | 99.7969 | 0.03171 | 7.4463 | 177.3397 | 336.1967 | 13.73998 | – |
| 2026 May 05 17:57 | 2026 May 03 11:11:19 | 99.7969 | 0.03171 | 7.4463 | 177.3397 | 336.1967 | 13.73998 | – |
| 2026 May 04 17:57 | 2026 Apr 29 05:10:57 | 99.7967 | 0.03169 | 7.1554 | 188.3291 | 336.1967 | 13.73998 | – |
| 2026 May 03 17:57 | 2026 Apr 29 05:10:57 | 99.7967 | 0.03169 | 7.1554 | 188.3291 | 336.1967 | 13.73998 | – |
| 2026 May 02 17:57 | 2026 Apr 29 05:10:57 | 99.7967 | 0.03169 | 7.1554 | 188.3291 | 336.1967 | 13.73998 | – |
| 2026 May 01 17:56 | 2026 Apr 29 05:10:57 | 99.7967 | 0.03169 | 7.1554 | 188.3291 | 336.1967 | 13.73998 | – |
| 2026 Apr 30 17:56 | 2026 Apr 29 05:10:57 | 99.7967 | 0.03169 | 7.1554 | 188.3291 | 336.1967 | 13.73998 | – |
| 2026 Apr 29 17:57 | 2026 Apr 24 10:29:37 | 99.7967 | 0.03167 | 6.8284 | 200.6909 | 336.1967 | 13.73998 | – |
| 2026 Apr 28 17:56 | 2026 Apr 24 10:29:37 | 99.7967 | 0.03167 | 6.8284 | 200.6909 | 336.1967 | 13.73998 | – |
| 2026 Apr 27 17:58 | 2026 Apr 24 10:29:37 | 99.7967 | 0.03167 | 6.8284 | 200.6909 | 336.1967 | 13.73998 | – |
| 2026 Apr 26 17:58 | 2026 Apr 24 10:29:37 | 99.7967 | 0.03167 | 6.8284 | 200.6909 | 336.1967 | 13.73998 | – |
| 2026 Apr 25 17:58 | 2026 Apr 24 10:29:37 | 99.7967 | 0.03167 | 6.8284 | 200.6909 | 336.1967 | 13.73998 | – |
| 2026 Apr 24 17:59 | 2026 Apr 24 10:29:37 | 99.7967 | 0.03167 | 6.8284 | 200.6909 | 336.1967 | 13.73998 | – |
| 2026 Apr 23 17:57 | 2026 Apr 18 05:17:15 | 99.7966 | 0.03165 | 6.4029 | 216.7854 | 336.1967 | 13.73998 | – |
| 2026 Apr 22 17:57 | 2026 Apr 18 05:17:15 | 99.7966 | 0.03165 | 6.4029 | 216.7854 | 336.1967 | 13.73998 | – |
| 2026 Apr 21 17:57 | 2026 Apr 18 05:17:15 | 99.7966 | 0.03165 | 6.4029 | 216.7854 | 336.1967 | 13.73998 | – |
| 2026 Apr 20 17:57 | 2026 Apr 18 05:17:15 | 99.7966 | 0.03165 | 6.4029 | 216.7854 | 336.1967 | 13.73998 | – |
| 2026 Apr 19 17:58 | 2026 Apr 18 05:17:15 | 99.7966 | 0.03165 | 6.4029 | 216.7854 | 336.1967 | 13.73998 | – |
| 2026 Apr 18 17:56 | 2026 Apr 12 17:15:22 | 99.7963 | 0.03163 | 6.0265 | 231.0346 | 336.1967 | 13.73998 | – |
| 2026 Apr 16 17:57 | 2026 Apr 12 17:15:22 | 99.7963 | 0.03163 | 6.0265 | 231.0346 | 336.1967 | 13.73998 | – |
| 2026 Apr 14 17:57 | 2026 Apr 12 17:15:22 | 99.7963 | 0.03163 | 6.0265 | 231.0346 | 336.1967 | 13.73998 | – |
| 2026 Apr 13 17:57 | 2026 Apr 12 17:15:22 | 99.7963 | 0.03163 | 6.0265 | 231.0346 | 336.1967 | 13.73998 | – |
| 2026 Apr 12 17:57 | 2026 Apr 08 05:49:39 | 99.7964 | 0.03162 | 5.7202 | 242.6294 | 336.1967 | 13.73998 | – |
| 2026 Apr 11 17:57 | 2026 Apr 08 05:49:39 | 99.7964 | 0.03162 | 5.7202 | 242.6294 | 336.1967 | 13.73998 | – |
| 2026 Apr 10 17:58 | 2026 Apr 08 05:49:39 | 99.7964 | 0.03162 | 5.7202 | 242.6294 | 336.1967 | 13.73998 | – |